sensor_id;sensor_type;location;lat;lon;timestamp;pressure;altitude;pressure_sealevel;temperature;humidity
79415;BME280;68864;44.972;19.612;2023-10-08T00:00:23;101139.81;;;16.15;61.15
79415;BME280;68864;44.972;19.612;2023-10-08T00:03:08;101143.47;;;16.23;61.21
79415;BME280;68864;44.972;19.612;2023-10-08T00:05:36;101139.84;;;16.19;61.48
79415;BME280;68864;44.972;19.612;2023-10-08T00:08:04;101140.16;;;16.10;62.28
79415;BME280;68864;44.972;19.612;2023-10-08T00:10:34;101138.66;;;16.20;60.94
79415;BME280;68864;44.972;19.612;2023-10-08T00:13:04;101144.69;;;16.22;60.97
79415;BME280;68864;44.972;19.612;2023-10-08T00:15:33;101136.66;;;16.24;60.72
79415;BME280;68864;44.972;19.612;2023-10-08T00:18:02;101124.16;;;16.18;60.95
79415;BME280;68864;44.972;19.612;2023-10-08T00:20:31;101128.97;;;16.17;61.04
79415;BME280;68864;44.972;19.612;2023-10-08T00:23:01;101120.91;;;16.16;60.61
79415;BME280;68864;44.972;19.612;2023-10-08T00:25:34;101099.22;;;16.16;60.47
79415;BME280;68864;44.972;19.612;2023-10-08T00:28:07;101108.88;;;16.15;60.49
79415;BME280;68864;44.972;19.612;2023-10-08T00:30:38;101099.66;;;16.18;60.87
79415;BME280;68864;44.972;19.612;2023-10-08T00:33:05;101090.41;;;16.18;60.75
79415;BME280;68864;44.972;19.612;2023-10-08T00:35:37;101091.59;;;16.17;60.58
79415;BME280;68864;44.972;19.612;2023-10-08T00:38:04;101098.88;;;16.21;60.55
79415;BME280;68864;44.972;19.612;2023-10-08T00:40:39;101088.34;;;16.11;61.24
79415;BME280;68864;44.972;19.612;2023-10-08T00:43:08;101097.66;;;16.22;60.13
79415;BME280;68864;44.972;19.612;2023-10-08T00:45:36;101102.91;;;16.24;60.29
79415;BME280;68864;44.972;19.612;2023-10-08T00:48:08;101094.03;;;16.18;60.37
79415;BME280;68864;44.972;19.612;2023-10-08T00:50:36;101100.09;;;16.24;60.42
79415;BME280;68864;44.972;19.612;2023-10-08T00:53:09;101089.22;;;16.19;60.01
79415;BME280;68864;44.972;19.612;2023-10-08T00:55:43;101087.88;;;16.06;60.20
79415;BME280;68864;44.972;19.612;2023-10-08T00:58:19;101095.19;;;16.14;59.95
79415;BME280;68864;44.972;19.612;2023-10-08T01:00:50;101101.59;;;16.11;59.84
79415;BME280;68864;44.972;19.612;2023-10-08T01:03:18;101102.81;;;16.13;59.57
79415;BME280;68864;44.972;19.612;2023-10-08T01:05:46;101091.97;;;16.12;59.71
79415;BME280;68864;44.972;19.612;2023-10-08T01:08:14;101081.44;;;16.02;59.89
79415;BME280;68864;44.972;19.612;2023-10-08T01:10:48;101094.84;;;16.19;59.81
79415;BME280;68864;44.972;19.612;2023-10-08T01:13:25;101085.56;;;16.15;59.56
79415;BME280;68864;44.972;19.612;2023-10-08T01:16:00;101078.72;;;16.12;59.58
79415;BME280;68864;44.972;19.612;2023-10-08T01:18:27;101077.91;;;16.12;59.67
79415;BME280;68864;44.972;19.612;2023-10-08T01:20:58;101055.72;;;16.00;59.52
79415;BME280;68864;44.972;19.612;2023-10-08T01:23:34;101061.78;;;16.05;59.55
79415;BME280;68864;44.972;19.612;2023-10-08T01:26:01;101070.25;;;16.09;59.80
79415;BME280;68864;44.972;19.612;2023-10-08T01:28:35;101075.88;;;16.09;59.76
79415;BME280;68864;44.972;19.612;2023-10-08T01:31:02;101070.59;;;16.04;59.94
79415;BME280;68864;44.972;19.612;2023-10-08T01:33:32;101061.44;;;16.14;59.88
79415;BME280;68864;44.972;19.612;2023-10-08T01:36:04;101038.47;;;16.05;60.56
79415;BME280;68864;44.972;19.612;2023-10-08T01:38:39;101056.22;;;16.16;60.33
79415;BME280;68864;44.972;19.612;2023-10-08T01:41:07;101062.69;;;16.20;60.07
79415;BME280;68864;44.972;19.612;2023-10-08T01:43:44;101068.28;;;16.13;60.50
79415;BME280;68864;44.972;19.612;2023-10-08T01:46:11;101061.84;;;16.16;60.28
79415;BME280;68864;44.972;19.612;2023-10-08T01:48:38;101050.97;;;16.11;60.58
79415;BME280;68864;44.972;19.612;2023-10-08T01:51:04;101053.31;;;16.02;61.49
79415;BME280;68864;44.972;19.612;2023-10-08T01:53:38;101050.16;;;16.10;60.62
79415;BME280;68864;44.972;19.612;2023-10-08T01:56:05;101057.41;;;16.11;60.82
79415;BME280;68864;44.972;19.612;2023-10-08T01:58:32;101064.66;;;16.16;60.91
79415;BME280;68864;44.972;19.612;2023-10-08T02:00:59;101062.94;;;16.01;62.34
79415;BME280;68864;44.972;19.612;2023-10-08T02:03:26;101068.28;;;16.13;60.91
79415;BME280;68864;44.972;19.612;2023-10-08T02:05:53;101067.09;;;16.17;60.87
79415;BME280;68864;44.972;19.612;2023-10-08T02:08:24;101059.03;;;16.16;60.55
79415;BME280;68864;44.972;19.612;2023-10-08T02:10:53;101044.16;;;16.12;60.67
79415;BME280;68864;44.972;19.612;2023-10-08T02:13:21;101038.91;;;16.07;61.01
79415;BME280;68864;44.972;19.612;2023-10-08T02:15:50;101036.09;;;16.10;61.06
79415;BME280;68864;44.972;19.612;2023-10-08T02:18:17;101049.38;;;16.13;61.66
79415;BME280;68864;44.972;19.612;2023-10-08T02:20:44;101046.97;;;16.12;62.39
79415;BME280;68864;44.972;19.612;2023-10-08T02:23:11;101059.03;;;16.12;62.21
79415;BME280;68864;44.972;19.612;2023-10-08T02:25:38;101052.59;;;16.12;62.19
79415;BME280;68864;44.972;19.612;2023-10-08T02:28:06;101063.28;;;15.96;63.07
79415;BME280;68864;44.972;19.612;2023-10-08T02:30:35;101058.56;;;16.07;62.36
79415;BME280;68864;44.972;19.612;2023-10-08T02:33:04;101058.22;;;16.12;62.04
79415;BME280;68864;44.972;19.612;2023-10-08T02:35:39;101049.38;;;16.13;62.02
79415;BME280;68864;44.972;19.612;2023-10-08T02:38:08;101050.22;;;16.17;62.06
79415;BME280;68864;44.972;19.612;2023-10-08T02:40:36;101043.72;;;16.06;62.79
79415;BME280;68864;44.972;19.612;2023-10-08T02:43:11;101017.22;;;16.07;61.38
79415;BME280;68864;44.972;19.612;2023-10-08T02:45:40;101031.72;;;16.16;60.74
79415;BME280;68864;44.972;19.612;2023-10-08T02:48:07;101030.56;;;16.21;60.56
79415;BME280;68864;44.972;19.612;2023-10-08T02:50:37;101029.34;;;16.18;60.65
79415;BME280;68864;44.972;19.612;2023-10-08T02:53:06;101036.97;;;16.18;60.89
79415;BME280;68864;44.972;19.612;2023-10-08T02:55:36;101020.03;;;16.11;61.00
79415;BME280;68864;44.972;19.612;2023-10-08T02:58:08;101043.84;;;16.24;60.80
79415;BME280;68864;44.972;19.612;2023-10-08T03:00:41;101042.66;;;16.25;60.66
79415;BME280;68864;44.972;19.612;2023-10-08T03:03:08;101018.47;;;16.17;60.60
79415;BME280;68864;44.972;19.612;2023-10-08T03:05:43;101021.75;;;16.26;60.27
79415;BME280;68864;44.972;19.612;2023-10-08T03:08:11;101019.69;;;16.19;60.28
79415;BME280;68864;44.972;19.612;2023-10-08T03:10:39;101024.59;;;16.29;59.88
79415;BME280;68864;44.972;19.612;2023-10-08T03:13:07;101020.56;;;16.30;59.87
79415;BME280;68864;44.972;19.612;2023-10-08T03:15:35;101010.88;;;16.21;59.58
79415;BME280;68864;44.972;19.612;2023-10-08T03:18:07;101026.19;;;16.27;59.17
79415;BME280;68864;44.972;19.612;2023-10-08T03:20:40;101005.22;;;16.14;58.98
79415;BME280;68864;44.972;19.612;2023-10-08T03:23:08;101026.19;;;16.27;58.77
79415;BME280;68864;44.972;19.612;2023-10-08T03:25:50;101022.13;;;16.21;58.60
79415;BME280;68864;44.972;19.612;2023-10-08T03:28:22;101023.28;;;16.16;58.70
79415;BME280;68864;44.972;19.612;2023-10-08T03:30:51;101026.88;;;16.13;58.85
79415;BME280;68864;44.972;19.612;2023-10-08T03:33:30;101024.50;;;16.15;58.51
79415;BME280;68864;44.972;19.612;2023-10-08T03:36:00;101024.50;;;16.15;58.66
79415;BME280;68864;44.972;19.612;2023-10-08T03:38:35;101022.91;;;16.18;58.56
79415;BME280;68864;44.972;19.612;2023-10-08T03:41:11;101023.28;;;16.13;58.84
79415;BME280;68864;44.972;19.612;2023-10-08T03:43:42;101016.03;;;16.12;58.89
79415;BME280;68864;44.972;19.612;2023-10-08T03:46:18;101013.22;;;16.12;59.63
79415;BME280;68864;44.972;19.612;2023-10-08T03:48:48;101017.66;;;16.13;59.14
79415;BME280;68864;44.972;19.612;2023-10-08T03:51:17;101014.00;;;16.09;59.46
79415;BME280;68864;44.972;19.612;2023-10-08T03:53:46;100997.53;;;16.07;59.35
79415;BME280;68864;44.972;19.612;2023-10-08T03:56:25;100975.84;;;16.11;59.38
79415;BME280;68864;44.972;19.612;2023-10-08T03:58:55;100989.13;;;16.14;58.94
79415;BME280;68864;44.972;19.612;2023-10-08T04:01:25;100987.91;;;16.12;59.10
79415;BME280;68864;44.972;19.612;2023-10-08T04:03:58;100977.41;;;16.02;59.53
79415;BME280;68864;44.972;19.612;2023-10-08T04:06:27;101011.19;;;16.09;60.18
79415;BME280;68864;44.972;19.612;2023-10-08T04:09:04;101004.34;;;16.06;60.38
79415;BME280;68864;44.972;19.612;2023-10-08T04:11:50;100988.22;;;16.00;60.16
79415;BME280;68864;44.972;19.612;2023-10-08T04:14:19;100989.91;;;16.11;60.31
79415;BME280;68864;44.972;19.612;2023-10-08T04:16:47;100992.72;;;16.08;60.73
79415;BME280;68864;44.972;19.612;2023-10-08T04:19:18;101004.34;;;16.10;60.61
79415;BME280;68864;44.972;19.612;2023-10-08T04:21:46;100992.22;;;15.99;60.81
79415;BME280;68864;44.972;19.612;2023-10-08T04:24:20;101007.16;;;16.10;60.62
79415;BME280;68864;44.972;19.612;2023-10-08T04:26:56;101002.72;;;16.05;60.52
79415;BME280;68864;44.972;19.612;2023-10-08T04:29:24;100985.00;;;15.98;60.19
79415;BME280;68864;44.972;19.612;2023-10-08T04:31:52;100991.47;;;16.05;60.34
79415;BME280;68864;44.972;19.612;2023-10-08T04:34:28;100987.03;;;16.01;60.60
79415;BME280;68864;44.972;19.612;2023-10-08T04:36:58;100991.47;;;16.02;60.28
79415;BME280;68864;44.972;19.612;2023-10-08T04:39:29;100967.66;;;15.88;60.44
79415;BME280;68864;44.972;19.612;2023-10-08T04:41:58;100989.03;;;16.04;60.30
79415;BME280;68864;44.972;19.612;2023-10-08T04:44:31;100977.81;;;16.04;60.09
79415;BME280;68864;44.972;19.612;2023-10-08T04:46:59;100989.03;;;16.04;60.03
79415;BME280;68864;44.972;19.612;2023-10-08T04:49:31;100969.75;;;16.02;60.14
79415;BME280;68864;44.972;19.612;2023-10-08T04:52:01;100987.41;;;15.99;60.44
79415;BME280;68864;44.972;19.612;2023-10-08T04:54:34;100971.69;;;15.91;60.70
79415;BME280;68864;44.972;19.612;2023-10-08T04:57:06;100987.03;;;16.01;60.75
79415;BME280;68864;44.972;19.612;2023-10-08T04:59:40;100997.53;;;16.07;60.94
79415;BME280;68864;44.972;19.612;2023-10-08T05:02:08;100988.72;;;16.09;60.71
79415;BME280;68864;44.972;19.612;2023-10-08T05:05:00;100977.47;;;16.09;60.60
79415;BME280;68864;44.972;19.612;2023-10-08T05:07:44;100983.53;;;16.18;60.51
79415;BME280;68864;44.972;19.612;2023-10-08T05:10:53;100983.53;;;16.18;60.40
79415;BME280;68864;44.972;19.612;2023-10-08T05:13:28;100966.22;;;16.12;60.31
79415;BME280;68864;44.972;19.612;2023-10-08T05:16:10;100973.50;;;16.20;60.06
79415;BME280;68864;44.972;19.612;2023-10-08T05:19:01;100983.13;;;16.19;60.16
79415;BME280;68864;44.972;19.612;2023-10-08T05:21:51;100978.72;;;16.18;60.02
79415;BME280;68864;44.972;19.612;2023-10-08T05:24:31;100985.56;;;16.21;59.82
79415;BME280;68864;44.972;19.612;2023-10-08T05:27:04;100993.59;;;16.19;60.41
79415;BME280;68864;44.972;19.612;2023-10-08T05:30:03;100995.19;;;16.20;60.17
79415;BME280;68864;44.972;19.612;2023-10-08T05:32:41;101003.53;;;16.06;60.60
79415;BME280;68864;44.972;19.612;2023-10-08T05:35:31;101005.22;;;16.14;60.26
79415;BME280;68864;44.972;19.612;2023-10-08T05:38:17;101002.81;;;16.19;59.72
79415;BME280;68864;44.972;19.612;2023-10-08T05:40:49;101005.66;;;16.23;59.49
79415;BME280;68864;44.972;19.612;2023-10-08T05:43:32;101003.31;;;16.28;59.55
79415;BME280;68864;44.972;19.612;2023-10-08T05:46:21;101017.75;;;16.30;59.62
79415;BME280;68864;44.972;19.612;2023-10-08T05:49:14;101018.19;;;16.33;59.86
79415;BME280;68864;44.972;19.612;2023-10-08T05:52:07;101006.13;;;16.32;60.04
79415;BME280;68864;44.972;19.612;2023-10-08T05:54:51;101011.78;;;16.39;60.12
79415;BME280;68864;44.972;19.612;2023-10-08T05:57:41;101020.25;;;16.39;60.68
79415;BME280;68864;44.972;19.612;2023-10-08T06:00:13;101022.69;;;16.44;60.54
79415;BME280;68864;44.972;19.612;2023-10-08T06:02:57;101027.13;;;16.49;60.39
79415;BME280;68864;44.972;19.612;2023-10-08T06:05:36;101009.88;;;16.54;60.32
79415;BME280;68864;44.972;19.612;2023-10-08T06:08:11;101006.25;;;16.57;60.34
79415;BME280;68864;44.972;19.612;2023-10-08T06:10:41;101009.16;;;16.60;60.10
79415;BME280;68864;44.972;19.612;2023-10-08T06:13:21;101004.31;;;16.61;59.95
79415;BME280;68864;44.972;19.612;2023-10-08T06:16:10;100997.94;;;16.67;59.75
79415;BME280;68864;44.972;19.612;2023-10-08T06:18:39;100993.53;;;16.74;59.42
79415;BME280;68864;44.972;19.612;2023-10-08T06:21:06;100992.75;;;16.84;59.25
79415;BME280;68864;44.972;19.612;2023-10-08T06:23:34;100975.91;;;16.94;58.45
79415;BME280;68864;44.972;19.612;2023-10-08T06:26:03;100985.63;;;17.07;57.91
79415;BME280;68864;44.972;19.612;2023-10-08T06:28:40;100971.56;;;17.15;57.47
79415;BME280;68864;44.972;19.612;2023-10-08T06:31:08;100968.31;;;17.13;57.19
79415;BME280;68864;44.972;19.612;2023-10-08T06:33:42;100958.66;;;17.10;57.38
79415;BME280;68864;44.972;19.612;2023-10-08T06:36:09;100952.22;;;17.13;57.37
79415;BME280;68864;44.972;19.612;2023-10-08T06:38:42;100939.72;;;17.03;57.20
79415;BME280;68864;44.972;19.612;2023-10-08T06:41:12;100974.41;;;17.32;56.61
79415;BME280;68864;44.972;19.612;2023-10-08T06:43:44;100984.09;;;17.53;56.24
79415;BME280;68864;44.972;19.612;2023-10-08T06:46:13;100992.16;;;17.75;55.87
79415;BME280;68864;44.972;19.612;2023-10-08T06:48:41;101001.44;;;17.97;55.62
79415;BME280;68864;44.972;19.612;2023-10-08T06:51:09;101010.69;;;18.22;54.83
79415;BME280;68864;44.972;19.612;2023-10-08T06:53:39;100992.91;;;18.43;54.26
79415;BME280;68864;44.972;19.612;2023-10-08T06:56:06;100998.16;;;18.45;54.14
79415;BME280;68864;44.972;19.612;2023-10-08T06:58:36;101003.78;;;18.52;53.81
79415;BME280;68864;44.972;19.612;2023-10-08T07:01:03;100992.50;;;18.52;53.98
79415;BME280;68864;44.972;19.612;2023-10-08T07:03:34;100997.75;;;18.53;54.10
79415;BME280;68864;44.972;19.612;2023-10-08T07:06:03;100994.53;;;18.58;54.01
79415;BME280;68864;44.972;19.612;2023-10-08T07:08:42;100976.38;;;18.59;54.17
79415;BME280;68864;44.972;19.612;2023-10-08T07:11:12;100989.59;;;18.84;53.76
79415;BME280;68864;44.972;19.612;2023-10-08T07:13:41;100979.00;;;19.05;53.44
79415;BME280;68864;44.972;19.612;2023-10-08T07:16:08;100983.28;;;19.31;52.83
79415;BME280;68864;44.972;19.612;2023-10-08T07:18:36;100994.09;;;19.54;52.11
79415;BME280;68864;44.972;19.612;2023-10-08T07:21:03;100995.44;;;19.83;51.05
79415;BME280;68864;44.972;19.612;2023-10-08T07:23:37;100983.19;;;20.01;50.69
79415;BME280;68864;44.972;19.612;2023-10-08T07:26:21;100981.06;;;20.08;50.61
79415;BME280;68864;44.972;19.612;2023-10-08T07:28:52;100984.66;;;20.16;50.64
79415;BME280;68864;44.972;19.612;2023-10-08T07:31:20;100969.34;;;20.10;50.18
79415;BME280;68864;44.972;19.612;2023-10-08T07:33:48;100991.75;;;20.38;49.24
79415;BME280;68864;44.972;19.612;2023-10-08T07:36:21;100989.50;;;20.56;48.71
79415;BME280;68864;44.972;19.612;2023-10-08T07:38:48;100964.91;;;20.50;48.19
79415;BME280;68864;44.972;19.612;2023-10-08T07:41:15;100984.66;;;20.57;47.60
79415;BME280;68864;44.972;19.612;2023-10-08T07:43:45;100978.16;;;20.60;47.28
79415;BME280;68864;44.972;19.612;2023-10-08T07:46:19;100980.91;;;20.67;46.77
79415;BME280;68864;44.972;19.612;2023-10-08T07:48:46;100973.56;;;20.70;46.69
79415;BME280;68864;44.972;19.612;2023-10-08T07:51:13;100971.94;;;20.72;46.18
79415;BME280;68864;44.972;19.612;2023-10-08T07:53:40;100957.72;;;20.76;46.32
79415;BME280;68864;44.972;19.612;2023-10-08T07:56:07;100962.34;;;20.62;45.40
79415;BME280;68864;44.972;19.612;2023-10-08T07:58:34;100954.16;;;20.68;46.12
79415;BME280;68864;44.972;19.612;2023-10-08T08:01:03;100962.56;;;20.75;45.81
79415;BME280;68864;44.972;19.612;2023-10-08T08:03:33;100961.59;;;20.89;45.76
79415;BME280;68864;44.972;19.612;2023-10-08T08:06:03;100955.03;;;20.95;45.68
79415;BME280;68864;44.972;19.612;2023-10-08T08:08:31;100957.72;;;21.06;45.20
79415;BME280;68864;44.972;19.612;2023-10-08T08:10:59;100930.63;;;22.48;41.70
79415;BME280;68864;44.972;19.612;2023-10-08T08:13:31;100941.41;;;24.30;37.98
79415;BME280;68864;44.972;19.612;2023-10-08T08:15:59;100945.09;;;31.24;27.11
79415;BME280;68864;44.972;19.612;2023-10-08T08:18:37;100934.31;;;33.21;23.79
79415;BME280;68864;44.972;19.612;2023-10-08T08:21:09;100925.75;;;37.22;17.91
79415;BME280;68864;44.972;19.612;2023-10-08T08:23:40;100918.00;;;40.53;15.47
79415;BME280;68864;44.972;19.612;2023-10-08T08:26:07;100918.63;;;41.69;14.40
79415;BME280;68864;44.972;19.612;2023-10-08T08:28:38;100910.81;;;40.67;15.49
79415;BME280;68864;44.972;19.612;2023-10-08T08:31:06;100913.56;;;37.24;17.54
79415;BME280;68864;44.972;19.612;2023-10-08T08:33:40;100929.13;;;34.86;19.67
79415;BME280;68864;44.972;19.612;2023-10-08T08:36:22;100929.88;;;33.26;22.10
79415;BME280;68864;44.972;19.612;2023-10-08T08:38:50;100929.13;;;31.92;23.74
79415;BME280;68864;44.972;19.612;2023-10-08T08:41:17;100932.06;;;30.69;25.01
79415;BME280;68864;44.972;19.612;2023-10-08T08:43:47;100938.19;;;29.43;25.66
79415;BME280;68864;44.972;19.612;2023-10-08T08:46:14;100931.00;;;28.60;27.77
79415;BME280;68864;44.972;19.612;2023-10-08T08:48:44;100933.00;;;27.87;28.17
79415;BME280;68864;44.972;19.612;2023-10-08T08:51:11;100946.31;;;27.22;29.78
79415;BME280;68864;44.972;19.612;2023-10-08T08:53:39;100937.16;;;26.62;30.34
79415;BME280;68864;44.972;19.612;2023-10-08T08:56:08;100948.31;;;26.13;31.00
79415;BME280;68864;44.972;19.612;2023-10-08T08:58:36;100951.03;;;25.57;32.10
79415;BME280;68864;44.972;19.612;2023-10-08T09:01:06;100937.00;;;25.24;32.50
79415;BME280;68864;44.972;19.612;2023-10-08T09:03:35;100945.75;;;24.92;33.26
79415;BME280;68864;44.972;19.612;2023-10-08T09:06:04;100949.84;;;24.62;33.82
79415;BME280;68864;44.972;19.612;2023-10-08T09:08:34;100942.56;;;24.32;34.21
79415;BME280;68864;44.972;19.612;2023-10-08T09:11:02;100948.63;;;24.18;35.15
79415;BME280;68864;44.972;19.612;2023-10-08T09:13:31;100938.66;;;23.94;35.58
79415;BME280;68864;44.972;19.612;2023-10-08T09:16:03;100945.81;;;23.86;36.26
79415;BME280;68864;44.972;19.612;2023-10-08T09:18:33;100948.13;;;23.74;36.80
79415;BME280;68864;44.972;19.612;2023-10-08T09:21:16;100953.72;;;23.78;37.38
79415;BME280;68864;44.972;19.612;2023-10-08T09:23:45;100945.25;;;24.23;36.25
79415;BME280;68864;44.972;19.612;2023-10-08T09:26:17;100936.16;;;24.57;35.78
79415;BME280;68864;44.972;19.612;2023-10-08T09:28:46;100936.56;;;24.84;35.10
79415;BME280;68864;44.972;19.612;2023-10-08T09:31:14;100959.00;;;25.11;34.75
79415;BME280;68864;44.972;19.612;2023-10-08T09:33:43;100959.47;;;25.35;34.80
79415;BME280;68864;44.972;19.612;2023-10-08T09:36:10;100942.72;;;25.62;34.57
79415;BME280;68864;44.972;19.612;2023-10-08T09:38:46;100943.63;;;25.72;33.73
79415;BME280;68864;44.972;19.612;2023-10-08T09:41:14;100949.19;;;25.88;33.88
79415;BME280;68864;44.972;19.612;2023-10-08T09:43:42;100933.66;;;25.77;33.89
79415;BME280;68864;44.972;19.612;2023-10-08T09:46:15;100951.06;;;26.51;32.76
79415;BME280;68864;44.972;19.612;2023-10-08T09:48:49;100954.28;;;26.97;31.90
79415;BME280;68864;44.972;19.612;2023-10-08T09:51:16;100948.88;;;27.29;31.61
79415;BME280;68864;44.972;19.612;2023-10-08T09:54:02;100947.22;;;27.50;31.00
79415;BME280;68864;44.972;19.612;2023-10-08T09:56:31;100943.81;;;27.64;30.96
79415;BME280;68864;44.972;19.612;2023-10-08T09:59:00;100948.03;;;28.09;30.27
79415;BME280;68864;44.972;19.612;2023-10-08T10:01:27;100955.72;;;28.30;29.51
79415;BME280;68864;44.972;19.612;2023-10-08T10:03:57;100947.28;;;28.45;29.82
79415;BME280;68864;44.972;19.612;2023-10-08T10:06:26;100934.03;;;28.66;29.31
79415;BME280;68864;44.972;19.612;2023-10-08T10:08:55;100947.75;;;28.89;28.76
79415;BME280;68864;44.972;19.612;2023-10-08T10:11:25;100940.72;;;28.72;29.45
79415;BME280;68864;44.972;19.612;2023-10-08T10:13:58;100950.47;;;28.29;29.99
79415;BME280;68864;44.972;19.612;2023-10-08T10:16:26;100940.09;;;28.50;29.74
79415;BME280;68864;44.972;19.612;2023-10-08T10:18:54;100940.72;;;28.63;29.41
79415;BME280;68864;44.972;19.612;2023-10-08T10:21:30;100942.97;;;28.77;29.67
79415;BME280;68864;44.972;19.612;2023-10-08T10:24:00;100941.81;;;28.93;29.20
79415;BME280;68864;44.972;19.612;2023-10-08T10:26:32;100930.34;;;28.93;29.30
79415;BME280;68864;44.972;19.612;2023-10-08T10:29:21;100937.38;;;28.92;28.96
79415;BME280;68864;44.972;19.612;2023-10-08T10:31:49;100941.53;;;28.91;28.66
79415;BME280;68864;44.972;19.612;2023-10-08T10:34:21;100941.19;;;28.89;29.55
79415;BME280;68864;44.972;19.612;2023-10-08T10:36:50;100928.13;;;28.88;29.24
79415;BME280;68864;44.972;19.612;2023-10-08T10:39:23;100937.06;;;28.90;29.01
79415;BME280;68864;44.972;19.612;2023-10-08T10:41:57;100926.66;;;28.92;29.16
79415;BME280;68864;44.972;19.612;2023-10-08T10:44:27;100918.72;;;28.87;29.40
79415;BME280;68864;44.972;19.612;2023-10-08T10:46:55;100924.47;;;28.87;28.98
79415;BME280;68864;44.972;19.612;2023-10-08T10:49:52;100906.94;;;28.67;29.50
79415;BME280;68864;44.972;19.612;2023-10-08T10:52:20;100927.84;;;28.76;29.26
79415;BME280;68864;44.972;19.612;2023-10-08T10:54:59;100905.19;;;28.60;29.20
79415;BME280;68864;44.972;19.612;2023-10-08T10:57:26;100904.56;;;28.56;29.65
79415;BME280;68864;44.972;19.612;2023-10-08T11:00:03;100906.50;;;28.32;29.56
79415;BME280;68864;44.972;19.612;2023-10-08T11:02:53;100907.47;;;28.29;30.36
79415;BME280;68864;44.972;19.612;2023-10-08T11:05:25;100890.91;;;28.24;30.31
79415;BME280;68864;44.972;19.612;2023-10-08T11:07:54;100896.94;;;28.26;29.73
79415;BME280;68864;44.972;19.612;2023-10-08T11:10:27;100895.38;;;28.25;30.43
79415;BME280;68864;44.972;19.612;2023-10-08T11:12:56;100891.97;;;28.08;30.18
79415;BME280;68864;44.972;19.612;2023-10-08T11:15:26;100901.69;;;28.11;29.80
79415;BME280;68864;44.972;19.612;2023-10-08T11:17:57;100888.16;;;28.02;29.88
79415;BME280;68864;44.972;19.612;2023-10-08T11:20:25;100888.94;;;27.93;30.06
79415;BME280;68864;44.972;19.612;2023-10-08T11:22:52;100896.41;;;27.82;30.69
79415;BME280;68864;44.972;19.612;2023-10-08T11:25:21;100901.81;;;27.80;30.84
79415;BME280;68864;44.972;19.612;2023-10-08T11:27:54;100903.88;;;27.70;30.40
79415;BME280;68864;44.972;19.612;2023-10-08T11:30:27;100891.28;;;27.58;30.20
79415;BME280;68864;44.972;19.612;2023-10-08T11:32:56;100887.09;;;27.50;31.17
79415;BME280;68864;44.972;19.612;2023-10-08T11:35:25;100902.56;;;27.62;30.69
79415;BME280;68864;44.972;19.612;2023-10-08T11:37:59;100882.50;;;27.53;30.73
79415;BME280;68864;44.972;19.612;2023-10-08T11:40:27;100881.41;;;27.68;30.69
79415;BME280;68864;44.972;19.612;2023-10-08T11:42:56;100889.38;;;27.74;30.28
79415;BME280;68864;44.972;19.612;2023-10-08T11:45:24;100886.88;;;27.85;29.96
79415;BME280;68864;44.972;19.612;2023-10-08T11:47:52;100879.53;;;27.75;30.29
79415;BME280;68864;44.972;19.612;2023-10-08T11:50:25;100890.69;;;27.82;30.23
79415;BME280;68864;44.972;19.612;2023-10-08T11:52:58;100886.38;;;27.77;30.56
79415;BME280;68864;44.972;19.612;2023-10-08T11:55:28;100896.25;;;27.76;30.94
79415;BME280;68864;44.972;19.612;2023-10-08T11:57:56;100905.78;;;27.82;30.65
79415;BME280;68864;44.972;19.612;2023-10-08T12:00:23;100898.63;;;27.78;31.23
79415;BME280;68864;44.972;19.612;2023-10-08T12:02:52;100900.88;;;27.83;31.12
79415;BME280;68864;44.972;19.612;2023-10-08T12:05:21;100885.88;;;27.70;30.81
79415;BME280;68864;44.972;19.612;2023-10-08T12:07:50;100906.22;;;27.62;30.66
79415;BME280;68864;44.972;19.612;2023-10-08T12:10:18;100899.34;;;27.51;31.02
79415;BME280;68864;44.972;19.612;2023-10-08T12:12:48;100896.59;;;27.38;31.34
79415;BME280;68864;44.972;19.612;2023-10-08T12:15:19;100913.09;;;27.25;31.68
79415;BME280;68864;44.972;19.612;2023-10-08T12:17:49;100895.69;;;27.10;31.45
79415;BME280;68864;44.972;19.612;2023-10-08T12:20:37;100909.47;;;27.03;32.01
79415;BME280;68864;44.972;19.612;2023-10-08T12:23:04;100906.25;;;26.92;32.36
79415;BME280;68864;44.972;19.612;2023-10-08T12:25:31;100910.00;;;26.88;32.61
79415;BME280;68864;44.972;19.612;2023-10-08T12:27:59;100909.94;;;26.79;32.71
79415;BME280;68864;44.972;19.612;2023-10-08T12:30:31;100889.19;;;26.66;32.49
79415;BME280;68864;44.972;19.612;2023-10-08T12:33:00;100901.59;;;26.63;32.88
79415;BME280;68864;44.972;19.612;2023-10-08T12:35:27;100910.44;;;26.78;33.36
79415;BME280;68864;44.972;19.612;2023-10-08T12:37:55;100911.81;;;26.73;33.32
79415;BME280;68864;44.972;19.612;2023-10-08T12:40:22;100905.97;;;26.77;33.48
79415;BME280;68864;44.972;19.612;2023-10-08T12:42:50;100895.59;;;26.70;33.07
79415;BME280;68864;44.972;19.612;2023-10-08T12:45:17;100899.44;;;26.76;33.64
79415;BME280;68864;44.972;19.612;2023-10-08T12:47:49;100890.22;;;26.72;33.49
79415;BME280;68864;44.972;19.612;2023-10-08T12:50:16;100891.78;;;26.73;33.29
79415;BME280;68864;44.972;19.612;2023-10-08T12:52:48;100897.50;;;26.73;33.29
79415;BME280;68864;44.972;19.612;2023-10-08T12:55:21;100909.34;;;26.84;33.59
79415;BME280;68864;44.972;19.612;2023-10-08T12:57:52;100913.47;;;26.83;33.36
79415;BME280;68864;44.972;19.612;2023-10-08T13:00:22;100910.69;;;26.71;33.10
79415;BME280;68864;44.972;19.612;2023-10-08T13:02:52;100918.81;;;26.72;33.31